Albion, CA (95410)

2:54 PM PDT on September 02, 2015 (GMT -0700)
Two miles south of Albion, CA | | Change Station
CLOSE
Current Station
Personal Weather Station
Location: Albion, CA
Elevation: 433 ft
Nearby Weather Stations

Elev 433 ft 39.20 °N, 123.76 °W | Updated 9 seconds ago

Clear
Clear
77.0 °F
Feels Like 79 °F
N
0.0
Wind Variable Wind from SSE
Gusts 2.0 mph

Today
High -- | Low -- °F
--% Chance of Precip.
Yesterday
High -- | Low -- °F
Precip. -- in
6:44 AM 7:44 PM
Waning Gibbous, 77% visible
Pressure 29.86 in
Visibility 10.0 miles
Clouds Clear
Heat Index 79 °F
Dew Point 59 °F
Humidity 54%
Rainfall 0.00 in
Snow Depth Not available.
UV 9 out of 12
Pollen 7.90 out of 12
Air Quality Not available.
Flu Activity Not available.
METAR KUKI 022056Z AUTO 34010KT 10SM CLR 28/11 A2988 RMK AO2 SLP109 T02780111 56016
Pressure 29.86 in
Visibility 10.0 miles
Clouds Clear
Heat Index 79 °F
Dew Point 59 °F
Humidity 54%
Rainfall 0.00 in
Snow Depth Not available.
UV 9 out of 12
Pollen 7.90 out of 12
Air Quality Not available.
Flu Activity Not available.
METAR KUKI 022056Z AUTO 34010KT 10SM CLR 28/11 A2988 RMK AO2 SLP109 T02780111 56016

10-Day Weather Forecast

×

Almanac

Astronomy

Sep. 02, 2015 Rise Set
Actual Time
Civil Twilight
Nautical Twilight
Astronomical Twilight
Moon
Length of Visible Light
Length of Day
Tomorrow will be .
, % of the Moon is Illuminated

Today's Extremes

State Highs State Lows

Community

WunderPhotos

Upload Photos

1,851,818 photos uploaded!

WunderBlogs® & News

Nearby

Air Quality

  Air Quality AQ Index Pollutant
Not available.

Snow Depth

Station Depth Elevation

Earthquake Activity

City Distance Mag. Time & Date
Minimum magnitude displayed is 2.5.

Coastal Water Temperatures

Place Temperature

Stations

Nearby Weather Stations

Station Location Temp. Windchill Dew Point Humidity Wind Precip. Elev Updated Type